sensor_id;sensor_type;location;lat;lon;timestamp;pressure;altitude;pressure_sealevel;temperature;humidity
57904;BME280;43720;47.462;19.030;2023-04-06T04:58:43;100450.59;;;0.23;60.26
57904;BME280;43720;47.462;19.030;2023-04-06T05:01:46;100456.78;;;0.27;60.25
57904;BME280;43720;47.462;19.030;2023-04-06T05:04:57;100466.38;;;0.29;59.97
57904;BME280;43720;47.462;19.030;2023-04-06T05:08:00;100464.94;;;0.34;59.79
57904;BME280;43720;47.462;19.030;2023-04-06T05:11:03;100462.22;;;0.31;59.77
57904;BME280;43720;47.462;19.030;2023-04-06T05:14:07;100465.22;;;0.39;59.76
57904;BME280;43720;47.462;19.030;2023-04-06T05:17:10;100463.31;;;0.51;59.82
57904;BME280;43720;47.462;19.030;2023-04-06T05:20:12;100458.31;;;0.54;59.44
57904;BME280;43720;47.462;19.030;2023-04-06T05:23:17;100449.03;;;0.56;59.17
57904;BME280;43720;47.462;19.030;2023-04-06T05:26:20;100447.09;;;0.52;59.28
57904;BME280;43720;47.462;19.030;2023-04-06T05:29:23;100438.94;;;0.76;59.08
57904;BME280;43720;47.462;19.030;2023-04-06T05:32:27;100437.34;;;0.78;59.06
57904;BME280;43720;47.462;19.030;2023-04-06T05:35:30;100429.53;;;0.92;59.91
57904;BME280;43720;47.462;19.030;2023-04-06T05:38:33;100440.03;;;1.12;58.75
57904;BME280;43720;47.462;19.030;2023-04-06T05:41:36;100432.81;;;1.05;58.53
57904;BME280;43720;47.462;19.030;2023-04-06T05:44:41;100426.59;;;1.17;59.46
57904;BME280;43720;47.462;19.030;2023-04-06T05:47:44;100428.66;;;1.57;59.09
57904;BME280;43720;47.462;19.030;2023-04-06T05:50:49;100414.34;;;1.80;56.10
57904;BME280;43720;47.462;19.030;2023-04-06T05:53:54;100409.25;;;1.98;54.67
57904;BME280;43720;47.462;19.030;2023-04-06T05:56:57;100406.37;;;2.10;55.00
57904;BME280;43720;47.462;19.030;2023-04-06T05:59:59;100405.84;;;1.99;55.17
57904;BME280;43720;47.462;19.030;2023-04-06T06:03:02;100410.56;;;1.90;54.30
57904;BME280;43720;47.462;19.030;2023-04-06T06:06:07;100407.44;;;1.97;54.65
57904;BME280;43720;47.462;19.030;2023-04-06T06:09:10;100407.91;;;2.06;55.32
57904;BME280;43720;47.462;19.030;2023-04-06T06:12:14;100397.59;;;2.24;54.28
57904;BME280;43720;47.462;19.030;2023-04-06T06:15:16;100395.91;;;2.25;54.05
57904;BME280;43720;47.462;19.030;2023-04-06T06:18:19;100391.53;;;2.24;53.36
57904;BME280;43720;47.462;19.030;2023-04-06T06:21:22;100389.84;;;2.42;52.95
57904;BME280;43720;47.462;19.030;2023-04-06T06:24:24;100389.47;;;2.52;53.17
57904;BME280;43720;47.462;19.030;2023-04-06T06:27:27;100384.12;;;2.67;52.63
57904;BME280;43720;47.462;19.030;2023-04-06T06:30:30;100392.03;;;2.89;53.17
57904;BME280;43720;47.462;19.030;2023-04-06T06:33:33;100383.59;;;2.93;51.31
57904;BME280;43720;47.462;19.030;2023-04-06T06:36:35;100378.19;;;3.07;51.54
57904;BME280;43720;47.462;19.030;2023-04-06T06:39:39;100367.06;;;3.29;51.38
57904;BME280;43720;47.462;19.030;2023-04-06T06:42:43;100369.16;;;3.57;50.18
57904;BME280;43720;47.462;19.030;2023-04-06T06:45:48;100375.13;;;3.56;50.93
57904;BME280;43720;47.462;19.030;2023-04-06T06:48:50;100361.88;;;3.48;48.96
57904;BME280;43720;47.462;19.030;2023-04-06T06:51:52;100363.25;;;3.80;50.41
57904;BME280;43720;47.462;19.030;2023-04-06T06:54:55;100359.09;;;3.84;48.68
57904;BME280;43720;47.462;19.030;2023-04-06T06:57:59;100357.44;;;4.07;46.71
57904;BME280;43720;47.462;19.030;2023-04-06T07:01:01;100345.78;;;4.18;42.92
57904;BME280;43720;47.462;19.030;2023-04-06T07:04:04;100350.34;;;4.46;45.85
57904;BME280;43720;47.462;19.030;2023-04-06T07:07:07;100348.44;;;4.64;42.54
57904;BME280;43720;47.462;19.030;2023-04-06T07:10:10;100362.28;;;4.65;41.25
57904;BME280;43720;47.462;19.030;2023-04-06T07:13:13;100353.81;;;4.69;42.84
57904;BME280;43720;47.462;19.030;2023-04-06T07:16:21;100356.91;;;4.83;43.44
57904;BME280;43720;47.462;19.030;2023-04-06T07:19:23;100360.62;;;4.67;42.11
57904;BME280;43720;47.462;19.030;2023-04-06T07:22:25;100349.78;;;4.77;41.59
57904;BME280;43720;47.462;19.030;2023-04-06T07:25:29;100354.66;;;4.92;44.19
57904;BME280;43720;47.462;19.030;2023-04-06T07:28:31;100357.09;;;5.11;44.14
57904;BME280;43720;47.462;19.030;2023-04-06T07:31:35;100355.31;;;5.34;42.65
57904;BME280;43720;47.462;19.030;2023-04-06T07:34:39;100355.25;;;5.09;40.82
57904;BME280;43720;47.462;19.030;2023-04-06T07:37:41;100356.28;;;4.66;42.06
57904;BME280;43720;47.462;19.030;2023-04-06T07:40:44;100348.97;;;4.78;42.58
57904;BME280;43720;47.462;19.030;2023-04-06T07:43:48;100344.59;;;5.00;41.98
57904;BME280;43720;47.462;19.030;2023-04-06T07:46:51;100347.91;;;4.96;41.20
57904;BME280;43720;47.462;19.030;2023-04-06T07:49:55;100335.97;;;5.01;40.57
57904;BME280;43720;47.462;19.030;2023-04-06T07:53:00;100338.81;;;5.32;41.60
57904;BME280;43720;47.462;19.030;2023-04-06T07:56:03;100340.00;;;5.17;41.71
57904;BME280;43720;47.462;19.030;2023-04-06T07:59:05;100333.59;;;5.31;39.79
57904;BME280;43720;47.462;19.030;2023-04-06T08:02:08;100334.94;;;5.45;41.37
57904;BME280;43720;47.462;19.030;2023-04-06T08:05:10;100328.25;;;5.52;42.41
57904;BME280;43720;47.462;19.030;2023-04-06T08:08:13;100329.53;;;5.64;39.28
57904;BME280;43720;47.462;19.030;2023-04-06T08:11:15;100336.44;;;5.38;41.03
57904;BME280;43720;47.462;19.030;2023-04-06T08:14:17;100332.78;;;5.33;39.93
57904;BME280;43720;47.462;19.030;2023-04-06T08:17:20;100336.44;;;5.38;41.09
57904;BME280;43720;47.462;19.030;2023-04-06T08:20:22;100341.41;;;5.32;41.22
57904;BME280;43720;47.462;19.030;2023-04-06T08:23:25;100343.16;;;5.33;42.22
57904;BME280;43720;47.462;19.030;2023-04-06T08:26:27;100335.16;;;5.51;40.92
57904;BME280;43720;47.462;19.030;2023-04-06T08:29:30;100345.28;;;5.45;41.72
57904;BME280;43720;47.462;19.030;2023-04-06T08:32:32;100330.53;;;5.68;40.43
57904;BME280;43720;47.462;19.030;2023-04-06T08:35:35;100335.84;;;5.97;41.49
57904;BME280;43720;47.462;19.030;2023-04-06T08:38:38;100331.50;;;5.72;41.10
57904;BME280;43720;47.462;19.030;2023-04-06T08:41:43;100320.66;;;6.09;40.65
57904;BME280;43720;47.462;19.030;2023-04-06T08:44:48;100320.09;;;6.19;39.17
57904;BME280;43720;47.462;19.030;2023-04-06T08:47:51;100315.81;;;6.50;39.39
57904;BME280;43720;47.462;19.030;2023-04-06T08:50:56;100319.16;;;6.74;39.42
57904;BME280;43720;47.462;19.030;2023-04-06T08:53:59;100319.63;;;6.91;38.17
57904;BME280;43720;47.462;19.030;2023-04-06T08:57:02;100308.88;;;6.49;38.49
57904;BME280;43720;47.462;19.030;2023-04-06T09:00:07;100309.53;;;6.42;39.45
57904;BME280;43720;47.462;19.030;2023-04-06T09:03:12;100310.72;;;6.53;40.55
57904;BME280;43720;47.462;19.030;2023-04-06T09:06:15;100314.31;;;6.28;40.18
57904;BME280;43720;47.462;19.030;2023-04-06T09:09:18;100303.41;;;6.70;40.72
57904;BME280;43720;47.462;19.030;2023-04-06T09:12:26;100296.81;;;6.81;38.97
57904;BME280;43720;47.462;19.030;2023-04-06T09:15:29;100303.72;;;7.12;38.34
57904;BME280;43720;47.462;19.030;2023-04-06T09:18:33;100292.47;;;7.11;38.60
57904;BME280;43720;47.462;19.030;2023-04-06T09:21:36;100292.16;;;7.32;39.23
57904;BME280;43720;47.462;19.030;2023-04-06T09:24:41;100284.50;;;7.39;37.08
57904;BME280;43720;47.462;19.030;2023-04-06T09:27:43;100285.78;;;7.21;36.74
57904;BME280;43720;47.462;19.030;2023-04-06T09:30:49;100275.03;;;7.41;36.48
57904;BME280;43720;47.462;19.030;2023-04-06T09:33:53;100273.41;;;7.80;37.18
57904;BME280;43720;47.462;19.030;2023-04-06T09:36:56;100273.31;;;7.77;36.11
57904;BME280;43720;47.462;19.030;2023-04-06T09:40:05;100272.47;;;8.16;36.59
57904;BME280;43720;47.462;19.030;2023-04-06T09:43:09;100265.72;;;8.24;34.54
57904;BME280;43720;47.462;19.030;2023-04-06T09:46:12;100256.38;;;8.32;34.87
57904;BME280;43720;47.462;19.030;2023-04-06T09:49:16;100261.94;;;8.10;36.24
57904;BME280;43720;47.462;19.030;2023-04-06T09:52:19;100266.31;;;8.50;35.09
57904;BME280;43720;47.462;19.030;2023-04-06T09:55:32;100253.44;;;8.56;34.41
